createdAt,value
2019-02-05T00:00:37.253Z,4.73
2019-02-05T00:03:23.364Z,4.83
2019-02-05T00:06:09.249Z,4.40
2019-02-05T00:08:55.649Z,4.80
2019-02-05T00:11:41.541Z,4.03
2019-02-05T00:14:27.427Z,4.87
2019-02-05T00:17:13.324Z,4.43
2019-02-05T00:19:59.198Z,4.93
2019-02-05T00:22:45.295Z,4.60
2019-02-05T00:25:25.138Z,4.33
2019-02-05T00:28:11.034Z,4.37
2019-02-05T00:30:57.141Z,4.67
2019-02-05T00:33:43.031Z,4.30
2019-02-05T00:36:29.219Z,4.70
2019-02-05T00:39:15.325Z,4.80
2019-02-05T00:42:01.349Z,5.33
2019-02-05T00:44:47.250Z,5.37
2019-02-05T00:50:21.686Z,5.77
2019-02-05T00:53:07.615Z,7.40
2019-02-05T00:55:53.498Z,6.40
2019-02-05T00:58:39.415Z,5.70
2019-02-05T01:01:25.294Z,4.77
2019-02-05T01:04:11.191Z,5.13
2019-02-05T01:06:57.298Z,4.87
2019-02-05T01:09:43.921Z,4.93
2019-02-05T01:12:29.811Z,6.00
2019-02-05T01:18:15.057Z,4.50
2019-02-05T01:21:00.953Z,5.37
2019-02-05T01:23:47.061Z,4.40
2019-02-05T01:26:34.387Z,4.47
2019-02-05T01:29:20.563Z,5.77
2019-02-05T01:32:06.661Z,4.37
2019-02-05T01:34:54.005Z,5.23
2019-02-05T01:37:39.884Z,5.60
2019-02-05T01:40:27.013Z,5.00
2019-02-05T01:43:13.122Z,4.73
2019-02-05T01:45:59.038Z,5.13
2019-02-05T01:48:45.218Z,5.27
2019-02-05T01:51:31.197Z,4.87
2019-02-05T01:54:17.078Z,4.87
2019-02-05T01:57:02.965Z,4.70
2019-02-05T01:59:48.842Z,5.50
2019-02-05T02:02:35.273Z,4.87
2019-02-05T02:05:21.357Z,5.30
2019-02-05T02:08:07.275Z,7.17
2019-02-05T02:10:53.148Z,5.60
2019-02-05T02:13:39.282Z,6.17
2019-02-05T02:16:25.403Z,5.87
2019-02-05T02:19:11.320Z,5.83
2019-02-05T02:21:57.429Z,6.30
2019-02-05T02:24:43.447Z,5.90
2019-02-05T02:27:22.430Z,6.47
2019-02-05T02:30:30.304Z,5.90
2019-02-05T02:33:16.203Z,6.27
2019-02-05T02:36:02.103Z,5.73
2019-02-05T02:38:47.995Z,5.60
2019-02-05T02:41:33.891Z,6.53
2019-02-05T02:44:19.776Z,5.97
2019-02-05T02:47:05.671Z,6.77
2019-02-05T02:49:51.621Z,7.13
2019-02-05T02:52:37.502Z,5.80
2019-02-05T02:55:23.707Z,5.30
2019-02-05T02:58:09.591Z,5.20
2019-02-05T03:00:55.481Z,6.10
2019-02-05T03:03:41.587Z,5.93
2019-02-05T03:06:27.582Z,6.83
2019-02-05T03:09:13.883Z,6.53
2019-02-05T03:11:59.976Z,6.63
2019-02-05T03:14:45.942Z,7.07
2019-02-05T03:17:31.852Z,6.63
2019-02-05T03:20:17.828Z,6.13
2019-02-05T03:23:03.838Z,6.53
2019-02-05T03:25:49.807Z,6.10
2019-02-05T03:28:29.234Z,6.70
2019-02-05T03:31:15.360Z,6.80
2019-02-05T03:34:01.251Z,6.70
2019-02-05T03:36:47.140Z,6.67
2019-02-05T03:39:33.056Z,7.10
2019-02-05T03:42:18.943Z,7.20
2019-02-05T03:45:04.949Z,6.57
2019-02-05T03:48:12.605Z,7.27
2019-02-05T03:51:22.467Z,6.93
2019-02-05T03:54:30.371Z,6.83
2019-02-05T03:57:38.049Z,7.23
2019-02-05T04:00:45.724Z,7.27
2019-02-05T04:03:32.771Z,7.10
2019-02-05T04:06:38.537Z,7.70
2019-02-05T04:09:46.622Z,8.10
2019-02-05T04:12:52.383Z,6.90
2019-02-05T04:15:58.151Z,7.47
2019-02-05T04:19:03.924Z,7.17
2019-02-05T04:24:57.088Z,7.30
2019-02-05T04:28:02.856Z,6.77
2019-02-05T04:31:10.801Z,6.83
2019-02-05T04:34:18.566Z,7.27
2019-02-05T04:37:07.300Z,5.63
2019-02-05T04:40:14.975Z,6.17
2019-02-05T04:47:02.359Z,5.30
2019-02-05T04:50:08.129Z,6.17
2019-02-05T04:53:15.818Z,6.17
2019-02-05T04:56:23.481Z,6.33
2019-02-05T04:59:31.236Z,5.57
2019-02-05T05:02:38.901Z,6.13
2019-02-05T05:05:44.675Z,5.03
2019-02-05T05:11:18.960Z,6.73
2019-02-05T05:14:04.894Z,6.27
2019-02-05T05:16:50.803Z,6.47
2019-02-05T05:22:25.302Z,5.80
2019-02-05T05:25:11.386Z,6.10
2019-02-05T05:28:19.067Z,7.67
2019-02-05T05:30:58.381Z,6.57
2019-02-05T05:33:44.285Z,7.33
2019-02-05T05:36:30.589Z,6.80
2019-02-05T05:39:18.389Z,6.77
2019-02-05T05:42:04.266Z,7.40
2019-02-05T05:44:50.206Z,7.53
2019-02-05T05:47:36.101Z,7.70
2019-02-05T05:50:21.989Z,7.60
2019-02-05T05:53:08.178Z,7.13
2019-02-05T05:55:54.083Z,7.70
2019-02-05T05:58:40.072Z,8.53
2019-02-05T06:01:26.235Z,7.63
2019-02-05T06:04:12.126Z,7.10
2019-02-05T06:06:58.338Z,7.33
2019-02-05T06:09:44.225Z,8.03
2019-02-05T06:16:03.917Z,7.60
2019-02-05T06:18:49.812Z,7.23
2019-02-05T06:21:35.932Z,6.97
2019-02-05T06:24:22.354Z,6.83
2019-02-05T06:27:08.246Z,7.03
2019-02-05T06:32:36.011Z,6.73
2019-02-05T06:35:21.887Z,6.40
2019-02-05T06:38:08.089Z,7.00
2019-02-05T06:40:54.077Z,6.17
2019-02-05T06:43:39.974Z,6.50
2019-02-05T06:46:25.950Z,6.87
2019-02-05T06:49:11.870Z,6.10
2019-02-05T06:51:58.042Z,6.93
2019-02-05T06:54:43.943Z,7.40
2019-02-05T06:57:29.817Z,6.00
2019-02-05T07:00:37.496Z,7.10
2019-02-05T07:03:23.370Z,7.73
2019-02-05T07:06:09.407Z,6.93
2019-02-05T07:08:55.523Z,6.57
2019-02-05T07:11:41.823Z,5.77
2019-02-05T07:14:27.716Z,7.13
2019-02-05T07:17:13.704Z,7.57
2019-02-05T07:19:59.578Z,7.07
2019-02-05T07:22:45.482Z,6.87
2019-02-05T07:25:31.773Z,7.43
2019-02-05T07:28:17.661Z,7.67
2019-02-05T07:31:03.760Z,7.97
2019-02-05T07:33:43.848Z,7.70
2019-02-05T07:36:30.215Z,7.80
2019-02-05T07:39:16.329Z,8.30
2019-02-05T07:42:02.523Z,8.23
2019-02-05T07:44:48.718Z,9.23
2019-02-05T07:47:36.534Z,8.73
2019-02-05T07:50:44.451Z,7.73
2019-02-05T07:53:33.177Z,8.17
2019-02-05T07:56:18.145Z,8.10
2019-02-05T07:59:10.343Z,7.43
2019-02-05T08:01:52.195Z,9.53
2019-02-05T08:04:38.263Z,7.77
2019-02-05T08:07:24.155Z,7.13
2019-02-05T08:10:31.843Z,7.97
2019-02-05T08:13:17.731Z,8.13
2019-02-05T08:16:03.951Z,7.43
2019-02-05T08:18:50.061Z,8.13
2019-02-05T08:21:35.990Z,7.73
2019-02-05T08:27:10.480Z,7.53
2019-02-05T08:29:56.367Z,7.27
2019-02-05T08:32:42.303Z,8.00
2019-02-05T08:35:22.076Z,7.60
2019-02-05T08:38:08.447Z,8.17
2019-02-05T08:40:54.330Z,8.90
2019-02-05T08:43:40.232Z,8.40
2019-02-05T08:46:26.329Z,8.33
2019-02-05T08:49:12.435Z,8.17
2019-02-05T08:51:58.318Z,8.57
2019-02-05T08:54:44.423Z,8.33
2019-02-05T08:57:30.530Z,7.67
2019-02-05T09:00:36.302Z,8.17
2019-02-05T09:03:22.188Z,8.10
2019-02-05T09:06:08.577Z,8.37
2019-02-05T09:08:54.565Z,7.87
2019-02-05T09:11:40.559Z,8.03
2019-02-05T09:14:26.437Z,8.30
2019-02-05T09:17:12.378Z,7.90
2019-02-05T09:19:58.267Z,8.53
2019-02-05T09:22:44.759Z,7.70
2019-02-05T09:25:30.654Z,8.90
2019-02-05T09:28:16.550Z,7.37
2019-02-05T09:31:02.638Z,6.60
2019-02-05T09:33:48.634Z,7.70
2019-02-05T09:36:28.806Z,7.23
2019-02-05T09:39:14.802Z,7.73
2019-02-05T09:42:00.879Z,7.67
2019-02-05T09:44:47.274Z,7.90
2019-02-05T09:47:33.378Z,8.73
2019-02-05T09:50:19.271Z,8.60
2019-02-05T09:53:05.283Z,7.43
2019-02-05T09:55:51.245Z,8.60
2019-02-05T09:58:37.432Z,8.80
2019-02-05T10:01:23.439Z,7.77
2019-02-05T10:04:09.336Z,10.27
2019-02-05T10:06:55.346Z,7.33
2019-02-05T10:09:41.546Z,7.10
2019-02-05T10:12:29.347Z,8.07
2019-02-05T10:15:35.117Z,8.63
2019-02-05T10:18:21.319Z,7.70
2019-02-05T10:21:07.307Z,7.37
2019-02-05T10:23:53.226Z,7.10
2019-02-05T10:26:39.112Z,8.07
2019-02-05T10:29:25.020Z,8.20
2019-02-05T10:32:11.212Z,8.70
2019-02-05T10:34:57.208Z,8.23
2019-02-05T10:37:36.934Z,8.83
2019-02-05T10:40:23.934Z,8.87
2019-02-05T10:43:10.037Z,9.13
2019-02-05T10:45:56.434Z,8.60
2019-02-05T10:48:42.315Z,8.83
2019-02-05T10:51:28.462Z,8.30
2019-02-05T10:54:14.348Z,8.00
2019-02-05T10:57:00.263Z,8.53
2019-02-05T10:59:46.245Z,8.73
2019-02-05T11:02:32.220Z,8.07
2019-02-05T11:05:40.001Z,8.30
2019-02-05T11:08:25.991Z,6.90
2019-02-05T11:11:12.114Z,7.17
2019-02-05T11:13:58.023Z,7.50
2019-02-05T11:16:43.911Z,8.00
2019-02-05T11:19:29.813Z,8.10
2019-02-05T11:25:04.914Z,8.47
2019-02-05T11:27:50.794Z,8.50
2019-02-05T11:30:58.487Z,8.50
2019-02-05T11:33:44.607Z,9.00
2019-02-05T11:36:30.744Z,8.77
2019-02-05T11:39:13.193Z,8.10
2019-02-05T11:41:59.094Z,9.33
2019-02-05T11:44:44.983Z,7.70
2019-02-05T11:47:30.875Z,8.87
2019-02-05T11:50:11.722Z,8.07
2019-02-05T11:52:57.623Z,8.40
2019-02-05T11:55:43.612Z,8.10
2019-02-05T11:58:29.612Z,7.87
2019-02-05T12:01:16.313Z,7.87
2019-02-05T12:04:02.682Z,8.07
2019-02-05T12:06:48.560Z,8.00
2019-02-05T12:09:34.685Z,8.03
2019-02-05T12:12:20.590Z,7.57
2019-02-05T12:15:28.279Z,8.20
2019-02-05T12:18:14.304Z,7.97
2019-02-05T12:21:00.942Z,8.73
2019-02-05T12:23:47.244Z,7.47
2019-02-05T12:26:33.136Z,7.47
2019-02-05T12:29:19.036Z,8.47
2019-02-05T12:32:04.917Z,7.80
2019-02-05T12:34:51.126Z,7.70
2019-02-05T12:37:37.010Z,7.93
2019-02-05T12:40:22.915Z,7.00
2019-02-05T12:43:08.796Z,7.03
2019-02-05T12:45:54.690Z,7.73
2019-02-05T12:48:34.262Z,7.33
2019-02-05T12:51:20.258Z,7.93
2019-02-05T12:54:06.226Z,7.23
2019-02-05T12:56:52.303Z,7.87
2019-02-05T12:59:38.264Z,8.00
2019-02-05T13:02:24.183Z,6.97
2019-02-05T13:05:10.283Z,7.77
2019-02-05T13:08:14.754Z,7.40
2019-02-05T13:11:00.661Z,8.13
2019-02-05T13:13:46.640Z,7.90
2019-02-05T13:16:34.554Z,8.13
2019-02-05T13:19:20.462Z,7.97
2019-02-05T13:22:06.637Z,7.97
2019-02-05T13:24:52.771Z,6.77
2019-02-05T13:27:38.655Z,6.83
2019-02-05T13:30:25.449Z,7.10
2019-02-05T13:33:11.661Z,8.27
2019-02-05T13:35:57.554Z,7.17
2019-02-05T13:42:27.219Z,7.57
2019-02-05T13:45:34.930Z,7.73
2019-02-05T13:48:20.806Z,7.90
2019-02-05T13:51:06.699Z,7.83
2019-02-05T13:53:52.583Z,7.90
2019-02-05T13:56:38.470Z,6.77
2019-02-05T13:59:24.355Z,8.03
2019-02-05T14:02:10.347Z,7.30
2019-02-05T14:04:56.236Z,7.40
2019-02-05T14:07:42.215Z,8.20
2019-02-05T14:10:48.001Z,7.87
2019-02-05T14:13:34.107Z,9.57
2019-02-05T14:16:13.197Z,8.53
2019-02-05T14:18:59.310Z,9.37
2019-02-05T14:21:46.877Z,8.13
2019-02-05T14:24:32.763Z,6.87
2019-02-05T14:27:18.765Z,7.40
2019-02-05T14:30:26.528Z,7.57
2019-02-05T14:33:12.432Z,7.50
2019-02-05T14:35:58.401Z,7.10
2019-02-05T14:38:44.390Z,7.53
2019-02-05T14:41:30.496Z,7.90
2019-02-05T14:44:16.631Z,7.40
2019-02-05T14:47:02.946Z,7.30
2019-02-05T14:49:49.080Z,8.03
2019-02-05T14:52:35.059Z,7.37
2019-02-05T14:55:14.227Z,8.67
2019-02-05T14:58:00.331Z,8.23
2019-02-05T15:00:46.227Z,8.43
2019-02-05T15:03:32.107Z,8.67
2019-02-05T15:06:18.234Z,7.90
2019-02-05T15:09:05.247Z,7.93
2019-02-05T15:11:51.126Z,7.83
2019-02-05T15:14:37.249Z,7.67
2019-02-05T15:17:23.134Z,8.80
2019-02-05T15:20:30.807Z,8.13
2019-02-05T15:23:16.910Z,8.73
2019-02-05T15:26:03.346Z,8.43
2019-02-05T15:28:49.463Z,7.87
2019-02-05T15:31:35.365Z,8.23
2019-02-05T15:34:21.252Z,7.33
2019-02-05T15:37:07.443Z,8.23
2019-02-05T15:39:55.445Z,8.13
2019-02-05T15:42:41.588Z,8.33
2019-02-05T15:45:27.660Z,8.10
2019-02-05T15:48:13.549Z,7.63
2019-02-05T15:50:52.731Z,7.97
2019-02-05T15:53:39.249Z,7.43
2019-02-05T15:56:25.195Z,7.73
2019-02-05T15:59:11.215Z,7.57
2019-02-05T16:04:45.423Z,8.27
2019-02-05T16:07:31.611Z,7.93
2019-02-05T16:10:18.416Z,8.20
2019-02-05T16:15:52.615Z,8.13
2019-02-05T16:18:38.511Z,7.73
2019-02-05T16:21:24.405Z,7.83
2019-02-05T16:24:55.153Z,8.40
2019-02-05T16:27:41.434Z,7.43
2019-02-05T16:30:29.634Z,8.07
2019-02-05T16:33:15.528Z,7.73
2019-02-05T16:36:01.425Z,8.67
2019-02-05T16:38:47.306Z,8.73
2019-02-05T16:41:33.228Z,8.33
2019-02-05T16:44:19.844Z,7.60
2019-02-05T16:47:05.751Z,8.43
2019-02-05T16:49:51.647Z,8.60
2019-02-05T16:52:37.551Z,9.03
2019-02-05T16:55:23.667Z,8.77
2019-02-05T16:58:09.969Z,8.77
2019-02-05T17:00:55.863Z,8.83
2019-02-05T17:03:41.748Z,9.00
2019-02-05T17:06:27.882Z,8.73
2019-02-05T17:09:13.974Z,8.37
2019-02-05T17:11:59.855Z,9.40
2019-02-05T17:14:45.953Z,8.57
2019-02-05T17:17:31.851Z,8.73
2019-02-05T17:20:37.611Z,9.30
2019-02-05T17:23:24.060Z,9.37
2019-02-05T17:26:09.949Z,8.37
2019-02-05T17:28:55.841Z,9.60
2019-02-05T17:31:41.790Z,9.57
2019-02-05T17:34:27.687Z,9.30
2019-02-05T17:37:13.869Z,9.47
2019-02-05T17:40:00.014Z,9.80
2019-02-05T17:42:45.982Z,11.20
2019-02-05T17:45:51.759Z,12.33
2019-02-05T17:48:31.138Z,13.60
2019-02-05T17:51:17.035Z,12.40
2019-02-05T17:54:03.239Z,11.00
2019-02-05T17:56:49.114Z,13.20
2019-02-05T17:59:35.010Z,15.10
2019-02-05T18:02:20.903Z,6.97
2019-02-05T18:05:28.588Z,6.93
2019-02-05T18:08:16.590Z,8.83
2019-02-05T18:11:03.095Z,7.67
2019-02-05T18:13:48.976Z,8.20
2019-02-05T18:16:34.875Z,9.03
2019-02-05T18:19:20.859Z,7.53
2019-02-05T18:22:08.079Z,8.03
2019-02-05T18:24:54.552Z,6.83
2019-02-05T18:27:40.446Z,7.00
2019-02-05T18:30:48.270Z,7.40
2019-02-05T18:33:34.434Z,6.53
2019-02-05T18:36:20.525Z,6.97
2019-02-05T18:39:06.615Z,6.17
2019-02-05T18:41:52.515Z,6.33
2019-02-05T18:44:38.402Z,6.43
2019-02-05T18:47:24.547Z,6.50
2019-02-05T18:50:06.647Z,7.10
2019-02-05T18:52:52.938Z,6.70
2019-02-05T18:56:00.606Z,7.57
2019-02-05T18:58:48.398Z,6.63
2019-02-05T19:01:34.281Z,7.10
2019-02-05T19:04:20.283Z,6.47
2019-02-05T19:07:06.166Z,7.07
2019-02-05T19:09:52.067Z,6.67
2019-02-05T19:12:38.274Z,6.87
2019-02-05T19:15:46.169Z,7.07
2019-02-05T19:18:32.063Z,7.03
2019-02-05T19:21:17.951Z,7.57
2019-02-05T19:27:04.697Z,7.23
2019-02-05T19:29:50.985Z,6.00
2019-02-05T19:32:36.868Z,5.87
2019-02-05T19:35:22.771Z,6.80
2019-02-05T19:38:08.664Z,5.73
2019-02-05T19:40:57.439Z,7.17
2019-02-05T19:43:42.708Z,6.47
2019-02-05T19:46:48.563Z,5.97
2019-02-05T19:49:29.284Z,5.63
2019-02-05T19:52:15.165Z,5.67
2019-02-05T19:55:01.300Z,5.40
2019-02-05T19:57:47.418Z,5.83
2019-02-05T20:00:33.309Z,5.53
2019-02-05T20:03:19.442Z,4.77
2019-02-05T20:06:05.419Z,5.43
2019-02-05T20:08:51.315Z,6.70
2019-02-05T20:11:37.398Z,6.50
2019-02-05T20:14:23.292Z,6.70
2019-02-05T20:17:09.265Z,6.67
2019-02-05T20:19:55.222Z,6.47
2019-02-05T20:22:41.113Z,6.23
2019-02-05T20:25:27.308Z,6.17
2019-02-05T20:28:13.404Z,6.13
2019-02-05T20:30:59.538Z,5.90
2019-02-05T20:33:49.932Z,5.67
2019-02-05T20:36:33.211Z,6.03
2019-02-05T20:39:19.399Z,4.90
2019-02-05T20:42:05.388Z,6.03
2019-02-05T20:44:51.296Z,7.30
2019-02-05T20:47:37.383Z,6.17
2019-02-05T20:50:17.885Z,6.70
2019-02-05T20:53:13.366Z,6.60
2019-02-05T20:55:51.807Z,5.93
2019-02-05T20:58:37.922Z,5.83
2019-02-05T21:01:23.826Z,7.07
2019-02-05T21:04:09.787Z,6.67
2019-02-05T21:06:56.002Z,7.33
2019-02-05T21:09:42.323Z,7.47
2019-02-05T21:12:28.275Z,7.17
2019-02-05T21:15:14.761Z,6.90
2019-02-05T21:18:00.759Z,7.33
2019-02-05T21:20:46.742Z,8.20
2019-02-05T21:23:32.642Z,6.30
2019-02-05T21:26:18.527Z,7.67
2019-02-05T21:29:04.931Z,6.83
2019-02-05T21:31:50.807Z,7.90
2019-02-05T21:34:36.711Z,6.80
2019-02-05T21:37:22.836Z,6.17
2019-02-05T21:40:31.559Z,7.20
2019-02-05T21:43:18.557Z,7.07
2019-02-05T21:46:04.447Z,6.97
2019-02-05T21:48:50.350Z,6.97
2019-02-05T21:51:40.425Z,6.50
2019-02-05T21:54:24.034Z,7.23
2019-02-05T21:57:09.916Z,7.07
2019-02-05T21:59:55.843Z,6.97
2019-02-05T22:02:41.751Z,7.83
2019-02-05T22:05:28.621Z,7.17
2019-02-05T22:08:14.817Z,7.83
2019-02-05T22:11:00.853Z,7.53
2019-02-05T22:13:46.813Z,6.77
2019-02-05T22:16:32.701Z,7.50
2019-02-05T22:19:21.011Z,6.90
2019-02-05T22:22:06.383Z,6.80
2019-02-05T22:24:52.521Z,7.07
2019-02-05T22:27:38.398Z,6.83
2019-02-05T22:30:28.163Z,7.73
2019-02-05T22:33:13.349Z,6.60
2019-02-05T22:35:59.337Z,7.17
2019-02-05T22:38:45.882Z,6.70
2019-02-05T22:41:33.922Z,7.83
2019-02-05T22:44:19.911Z,7.70
2019-02-05T22:47:06.086Z,7.07
2019-02-05T22:49:45.458Z,6.67
2019-02-05T22:52:31.579Z,6.67
2019-02-05T22:55:17.894Z,6.20
2019-02-05T22:58:04.276Z,7.20
2019-02-05T23:01:10.051Z,6.93
2019-02-05T23:04:17.730Z,7.17
2019-02-05T23:07:25.419Z,8.23
2019-02-05T23:10:31.199Z,7.10
2019-02-05T23:13:17.215Z,7.23
2019-02-05T23:16:03.306Z,8.53
2019-02-05T23:18:49.427Z,7.30
2019-02-05T23:21:35.383Z,6.67
2019-02-05T23:24:21.481Z,8.70
2019-02-05T23:27:35.915Z,8.60
2019-02-05T23:30:22.869Z,7.80
2019-02-05T23:33:08.856Z,7.77
2019-02-05T23:35:54.739Z,7.90
2019-02-05T23:38:42.324Z,7.67
2019-02-05T23:41:28.412Z,7.40
2019-02-05T23:44:14.307Z,7.83
2019-02-05T23:47:00.194Z,8.23
2019-02-05T23:49:39.829Z,7.53
2019-02-05T23:52:25.719Z,8.37
2019-02-05T23:55:12.234Z,9.93
2019-02-05T23:57:58.182Z,8.50
